Time;durP1;ratioP1;P1;durP2;ratioP2;P2;SDS_P1;SDS_P2;PMS_P1;PMS_P2;Temp;Humidity;BMP_temperature;BMP_pressure;BME280_temperature;BME280_humidity;BME280_pressure;Samples;Min_cycle;Max_cycle;Signal;HPM_P1;HPM_P2
2021/12/18 00:02:17;;;;;;;23.52;10.98;;;;;;;6.81;98.95;103982.69;5055351;28;20021;-54
2021/12/18 00:04:43;;;;;;;23.90;10.70;;;;;;;6.84;99.02;103978.69;5055577;28;20036;-55
2021/12/18 00:07:09;;;;;;;22.92;10.57;;;;;;;6.82;98.60;103973.38;5054916;28;20029;-54
2021/12/18 00:09:35;;;;;;;23.20;10.32;;;;;;;6.82;98.87;103976.16;5054970;28;20093;-54
2021/12/18 00:12:01;;;;;;;21.63;10.32;;;;;;;6.82;97.92;103973.38;5055245;28;20125;-54
2021/12/18 00:14:27;;;;;;;21.92;10.50;;;;;;;6.77;97.90;103969.56;5053775;28;20037;-54
2021/12/18 00:16:53;;;;;;;20.65;9.57;;;;;;;6.75;97.23;103972.50;5055490;28;20025;-54
2021/12/18 00:19:24;;;;;;;20.02;9.13;;;;;;;6.75;97.12;103963.41;5055638;28;20036;-54
2021/12/18 00:21:50;;;;;;;19.15;8.27;;;;;;;6.71;96.60;103962.94;5055081;28;20074;-55
2021/12/18 00:24:16;;;;;;;19.33;8.25;;;;;;;6.70;96.57;103964.00;5055430;28;20053;-55
2021/12/18 00:26:41;;;;;;;18.83;8.10;;;;;;;6.71;96.49;103960.19;5054733;28;20033;-55
2021/12/18 00:29:06;;;;;;;18.02;8.00;;;;;;;6.68;96.25;103960.59;5054962;28;20387;-55
2021/12/18 00:31:31;;;;;;;19.27;8.77;;;;;;;6.66;96.11;103954.47;5053557;28;20025;-56
2021/12/18 00:33:57;;;;;;;19.17;8.05;;;;;;;6.65;96.23;103953.59;5054889;28;20021;-56
2021/12/18 00:36:22;;;;;;;19.10;7.97;;;;;;;6.66;96.25;103957.22;5054718;28;20033;-56
2021/12/18 00:38:47;;;;;;;18.85;8.13;;;;;;;6.66;96.70;103952.56;5055080;28;20031;-56
2021/12/18 00:41:26;;;;;;;18.95;7.78;;;;;;;6.66;96.15;103943.47;5053394;28;20032;-56
2021/12/18 00:44:04;;;;;;;15.93;7.50;;;;;;;6.65;95.71;103942.59;5054818;28;20539;-56
2021/12/18 00:46:35;;;;;;;18.67;7.90;;;;;;;6.65;96.13;103937.09;5054696;28;20033;-56
2021/12/18 00:49:02;;;;;;;19.00;7.60;;;;;;;6.69;96.17;103948.53;5055088;28;20033;-56
2021/12/18 00:51:27;;;;;;;19.05;8.52;;;;;;;6.68;96.21;103938.59;5054406;28;20056;-56
2021/12/18 00:53:53;;;;;;;19.33;8.25;;;;;;;6.66;96.07;103941.56;5054571;28;20021;-56
2021/12/18 00:56:18;;;;;;;19.42;8.32;;;;;;;6.69;96.49;103935.66;5054669;28;20107;-56
2021/12/18 00:58:44;;;;;;;18.55;7.63;;;;;;;6.70;96.15;103928.22;5053929;28;20039;-56
2021/12/18 01:01:11;;;;;;;17.92;7.57;;;;;;;6.67;96.24;103923.13;5053995;28;20072;-56
2021/12/18 01:03:39;;;;;;;19.45;7.72;;;;;;;6.67;95.88;103932.25;5054877;28;20025;-56
2021/12/18 01:06:04;;;;;;;19.00;8.02;;;;;;;6.67;96.29;103921.25;5054247;28;20025;-55
2021/12/18 01:08:30;;;;;;;19.13;8.07;;;;;;;6.70;96.16;103918.09;5053981;28;20465;-57
2021/12/18 01:13:26;;;;;;;19.70;8.70;;;;;;;6.71;96.46;103916.19;5053950;28;20033;-55
2021/12/18 01:15:54;;;;;;;19.83;8.43;;;;;;;6.72;96.09;103909.63;5053941;28;20033;-55
2021/12/18 01:23:48;;;;;;;19.40;8.07;;;;;;;6.73;95.76;103916.84;5053932;28;20064;-55
2021/12/18 01:26:13;;;;;;;18.98;7.88;;;;;;;6.71;95.70;103916.19;5053999;28;20048;-56
2021/12/18 01:28:39;;;;;;;18.33;7.97;;;;;;;6.73;96.11;103914.09;5053580;28;20446;-56
2021/12/18 01:31:05;;;;;;;19.38;8.20;;;;;;;6.74;95.96;103923.16;5053867;28;20032;-56
2021/12/18 01:33:31;;;;;;;19.25;8.20;;;;;;;6.71;95.76;103925.28;5054454;28;20052;-56
2021/12/18 01:35:59;;;;;;;20.55;7.82;;;;;;;6.70;95.93;103928.22;5053860;28;20056;-56
2021/12/18 01:38:25;;;;;;;19.02;9.15;;;;;;;6.70;96.06;103922.72;5053531;28;20029;-56
2021/12/18 01:40:50;;;;;;;20.02;8.30;;;;;;;6.68;96.04;103919.31;5053725;28;20464;-56
2021/12/18 01:46:08;;;;;;;21.77;9.25;;;;;;;6.62;96.08;103934.75;5053589;28;20037;-56
2021/12/18 01:51:34;;;;;;;19.30;8.52;;;;;;;6.63;96.39;103936.44;5053331;28;20048;-55
2021/12/18 01:54:00;;;;;;;20.83;8.82;;;;;;;6.61;96.23;103945.97;5052486;28;20033;-56
2021/12/18 01:56:26;;;;;;;20.30;8.88;;;;;;;6.58;96.50;103951.84;5052175;28;20036;-56
2021/12/18 01:58:54;;;;;;;20.45;8.40;;;;;;;6.56;96.37;103947.41;5053199;28;20082;-54
2021/12/18 02:01:19;;;;;;;20.85;8.57;;;;;;;6.55;96.44;103947.63;5052973;28;20434;-55
2021/12/18 02:03:46;;;;;;;21.08;9.23;;;;;;;6.50;96.56;103948.22;5052977;28;20155;-55
2021/12/18 02:06:12;;;;;;;21.60;9.73;;;;;;;6.52;96.81;103951.63;5052334;28;20111;-55
2021/12/18 02:08:39;;;;;;;20.25;9.38;;;;;;;6.51;96.92;103949.09;5053004;28;20121;-56
2021/12/18 02:11:14;;;;;;;20.50;9.73;;;;;;;6.50;97.04;103945.47;5053168;28;20147;-56
2021/12/18 02:19:36;;;;;;;20.63;9.45;;;;;;;6.56;97.23;103946.56;5052953;28;20047;-55
2021/12/18 02:22:03;;;;;;;20.83;9.70;;;;;;;6.55;97.32;103948.47;5052855;28;20033;-56
2021/12/18 02:24:30;;;;;;;20.00;9.20;;;;;;;6.55;97.52;103944.88;5053256;28;20047;-56
2021/12/18 02:26:57;;;;;;;21.13;9.57;;;;;;;6.49;97.65;103938.28;5052628;28;20033;-55
2021/12/18 02:29:23;;;;;;;20.75;9.48;;;;;;;6.48;97.89;103936.56;5050926;28;20060;-56
2021/12/18 02:31:48;;;;;;;22.02;10.18;;;;;;;6.47;97.82;103937.63;5052417;28;20052;-56
2021/12/18 02:34:23;;;;;;;21.80;10.05;;;;;;;6.45;98.07;103930.63;5053130;28;20048;-56
2021/12/18 02:36:49;;;;;;;20.13;9.77;;;;;;;6.46;98.15;103935.09;5053052;28;20037;-56
2021/12/18 02:39:38;;;;;;;21.70;10.35;;;;;;;6.47;98.38;103926.63;5052924;28;20028;-57
2021/12/18 02:42:18;;;;;;;22.13;10.48;;;;;;;6.47;98.16;103929.38;5052458;28;20112;-56
2021/12/18 02:44:44;;;;;;;20.25;9.93;;;;;;;6.50;98.70;103926.22;5052549;28;20492;-55
2021/12/18 02:47:12;;;;;;;21.98;10.45;;;;;;;6.48;98.49;103922.81;5052019;28;20033;-55
2021/12/18 02:49:43;;;;;;;21.40;9.18;;;;;;;6.50;98.77;103914.38;5052244;28;20022;-57
2021/12/18 02:52:08;;;;;;;19.95;8.98;;;;;;;6.47;98.41;103920.28;5052364;28;20095;-55
2021/12/18 02:54:33;;;;;;;19.80;8.98;;;;;;;6.49;98.39;103913.53;5052374;28;20473;-58
2021/12/18 02:56:58;;;;;;;20.02;9.43;;;;;;;6.47;98.71;103917.53;5052765;28;20451;-58
2021/12/18 02:59:25;;;;;;;21.48;9.63;;;;;;;6.45;98.62;103904.00;5052574;28;20139;-56
2021/12/18 03:01:50;;;;;;;22.13;10.05;;;;;;;6.40;99.04;103901.84;5052256;28;20055;-55
2021/12/18 03:04:33;;;;;;;20.73;10.55;;;;;;;6.40;99.18;103898.22;5051727;28;20025;-56
2021/12/18 03:07:02;;;;;;;20.48;9.27;;;;;;;6.40;99.17;103906.47;5051192;28;20044;-56
2021/12/18 03:25:16;;;;;;;24.73;11.32;;;;;;;6.45;99.80;103904.00;5052181;28;20029;-56
2021/12/18 03:27:41;;;;;;;23.08;11.25;;;;;;;6.48;99.72;103891.72;5052377;28;20086;-56
2021/12/18 03:30:07;;;;;;;23.67;10.77;;;;;;;6.51;99.90;103903.16;5052115;28;20480;-56
2021/12/18 03:32:32;;;;;;;24.90;11.13;;;;;;;6.49;99.71;103898.94;5051800;28;20025;-56
2021/12/18 03:34:58;;;;;;;25.83;11.68;;;;;;;6.49;100.00;103894.25;5051621;28;20021;-55
2021/12/18 03:37:23;;;;;;;25.20;11.32;;;;;;;6.49;100.00;103888.75;5052028;28;20066;-56
2021/12/18 03:39:49;;;;;;;24.98;11.35;;;;;;;6.50;99.96;103890.47;5051911;28;20036;-56
2021/12/18 03:42:14;;;;;;;24.80;11.00;;;;;;;6.50;100.00;103890.47;5051630;28;20044;-56
2021/12/18 03:44:40;;;;;;;25.33;11.05;;;;;;;6.48;100.00;103891.72;5051867;28;20491;-56
2021/12/18 03:47:07;;;;;;;24.95;10.93;;;;;;;6.47;100.00;103896.38;5052263;28;20392;-58
2021/12/18 03:49:33;;;;;;;24.02;11.43;;;;;;;6.46;100.00;103902.06;5052079;28;20024;-56
2021/12/18 03:51:58;;;;;;;24.25;11.48;;;;;;;6.43;100.00;103899.72;5051800;28;20032;-56
2021/12/18 03:54:24;;;;;;;26.10;12.90;;;;;;;6.42;100.00;103900.81;5051958;28;20025;-56
2021/12/18 03:56:50;;;;;;;23.17;10.90;;;;;;;6.43;100.00;103897.84;5051883;28;20044;-56
2021/12/18 03:59:15;;;;;;;23.05;11.00;;;;;;;6.41;100.00;103899.94;5051926;28;20025;-56
2021/12/18 04:01:41;;;;;;;23.08;11.18;;;;;;;6.42;100.00;103895.31;5052132;28;20033;-56
2021/12/18 04:04:06;;;;;;;24.08;11.55;;;;;;;6.42;100.00;103906.31;5051920;28;20022;-57
2021/12/18 04:06:32;;;;;;;25.27;11.70;;;;;;;6.41;100.00;103897.19;5051740;28;20025;-55
2021/12/18 04:08:58;;;;;;;23.77;10.93;;;;;;;6.41;100.00;103891.69;5051774;28;20116;-57
2021/12/18 04:11:24;;;;;;;22.73;10.93;;;;;;;6.43;100.00;103899.72;5050625;28;20120;-55
2021/12/18 04:13:49;;;;;;;23.15;11.05;;;;;;;6.45;100.00;103889.38;5051605;28;20116;-55
2021/12/18 04:16:15;;;;;;;23.90;10.90;;;;;;;6.40;100.00;103887.22;5053039;28;20029;-54
2021/12/18 04:18:41;;;;;;;22.80;10.55;;;;;;;6.38;100.00;103894.84;5055319;28;20025;-56
2021/12/18 04:21:07;;;;;;;23.88;10.80;;;;;;;6.39;100.00;103896.53;5055249;28;20025;-56
2021/12/18 04:23:33;;;;;;;23.52;10.57;;;;;;;6.40;100.00;103901.84;5053317;28;20036;-56
2021/12/18 04:25:58;;;;;;;21.98;10.50;;;;;;;6.39;100.00;103902.03;5055437;28;20025;-55
2021/12/18 04:28:24;;;;;;;22.08;10.35;;;;;;;6.37;100.00;103902.25;5054882;28;20112;-55
2021/12/18 04:30:50;;;;;;;23.40;11.18;;;;;;;6.38;100.00;103906.69;5055423;28;20033;-55
2021/12/18 04:33:15;;;;;;;23.55;10.65;;;;;;;6.35;100.00;103901.59;5054861;28;20029;-55
2021/12/18 04:35:42;;;;;;;23.05;10.80;;;;;;;6.31;100.00;103905.81;5054421;28;20025;-55
2021/12/18 04:38:08;;;;;;;22.50;11.07;;;;;;;6.28;100.00;103902.63;5054670;28;20033;-55
2021/12/18 04:40:34;;;;;;;23.42;11.40;;;;;;;6.25;100.00;103903.84;5055120;28;20094;-56
2021/12/18 04:43:00;;;;;;;23.10;11.05;;;;;;;6.25;100.00;103903.84;5054719;28;20048;-56
2021/12/18 04:45:25;;;;;;;25.35;11.43;;;;;;;6.22;100.00;103896.88;5055016;28;20075;-56
2021/12/18 04:47:51;;;;;;;25.85;12.70;;;;;;;6.23;100.00;103908.72;5054976;28;20037;-55
2021/12/18 04:50:16;;;;;;;25.27;11.27;;;;;;;6.27;100.00;103910.00;5054820;28;20040;-56
2021/12/18 04:52:41;;;;;;;24.00;11.30;;;;;;;6.29;100.00;103915.28;5054929;28;20087;-55
2021/12/18 04:55:07;;;;;;;23.83;10.77;;;;;;;6.30;100.00;103911.50;5054703;28;20048;-55
2021/12/18 04:57:32;;;;;;;24.88;11.20;;;;;;;6.30;100.00;103909.63;5054693;28;20532;-57
2021/12/18 04:59:58;;;;;;;26.20;12.02;;;;;;;6.33;100.00;103911.94;5053407;28;20499;-56
2021/12/18 05:02:33;;;;;;;26.20;11.52;;;;;;;6.34;100.00;103916.38;5054627;28;20033;-55
2021/12/18 05:04:59;;;;;;;24.15;11.55;;;;;;;6.35;100.00;103911.75;5054559;28;20441;-55
2021/12/18 05:07:26;;;;;;;24.35;11.00;;;;;;;6.35;100.00;103923.59;5054281;28;20063;-54
2021/12/18 05:09:51;;;;;;;24.90;11.98;;;;;;;6.37;100.00;103912.41;5053869;28;20518;-55
2021/12/18 05:12:16;;;;;;;24.95;11.50;;;;;;;6.38;100.00;103920.44;5054521;28;20112;-54
2021/12/18 05:14:42;;;;;;;26.95;12.30;;;;;;;6.40;100.00;103926.59;5054193;28;20055;-56
2021/12/18 05:17:07;;;;;;;24.52;11.27;;;;;;;6.38;100.00;103919.56;5054035;28;20079;-55
2021/12/18 05:19:32;;;;;;;25.52;12.80;;;;;;;6.38;100.00;103917.69;5054231;28;20464;-56
2021/12/18 05:21:58;;;;;;;25.50;12.27;;;;;;;6.38;100.00;103909.44;5054210;28;20096;-56
2021/12/18 05:24:23;;;;;;;24.88;13.05;;;;;;;6.34;100.00;103921.06;5054026;28;20033;-56
2021/12/18 05:26:48;;;;;;;24.20;11.52;;;;;;;6.32;100.00;103918.50;5053428;28;20021;-55
2021/12/18 05:29:14;;;;;;;23.73;11.35;;;;;;;6.33;100.00;103913.84;5053903;28;20028;-56
2021/12/18 05:31:39;;;;;;;23.30;10.52;;;;;;;6.34;100.00;103921.06;5053743;28;20025;-56
2021/12/18 05:34:05;;;;;;;23.75;11.13;;;;;;;6.33;100.00;103920.19;5053956;28;20032;-56
2021/12/18 05:36:40;;;;;;;23.90;10.40;;;;;;;6.34;100.00;103926.56;5054153;28;20029;-56
2021/12/18 05:39:08;;;;;;;22.17;10.38;;;;;;;6.35;100.00;103920.84;5053560;28;20029;-56
2021/12/18 05:41:35;;;;;;;24.35;11.07;;;;;;;6.35;100.00;103920.84;5053973;28;20029;-55
2021/12/18 05:44:01;;;;;;;23.95;10.95;;;;;;;6.33;100.00;103924.84;5053571;28;20128;-53
2021/12/18 05:46:26;;;;;;;23.65;11.10;;;;;;;6.32;100.00;103925.91;5053664;28;20025;-54
2021/12/18 05:48:52;;;;;;;24.98;11.57;;;;;;;6.33;100.00;103924.84;5053655;28;20498;-55
2021/12/18 05:51:18;;;;;;;24.25;11.07;;;;;;;6.33;100.00;103922.94;5053694;28;20025;-55
2021/12/18 05:53:44;;;;;;;23.13;10.43;;;;;;;6.27;100.00;103914.66;5053432;28;20025;-55
2021/12/18 05:56:09;;;;;;;23.85;10.95;;;;;;;6.24;100.00;103922.25;5053146;28;20029;-54
2021/12/18 05:58:35;;;;;;;25.35;12.45;;;;;;;6.23;100.00;103915.06;5052811;28;20361;-55
2021/12/18 06:01:00;;;;;;;26.38;11.00;;;;;;;6.24;100.00;103916.75;5052915;28;20087;-55
2021/12/18 06:03:26;;;;;;;25.48;11.80;;;;;;;6.27;100.00;103922.91;5053273;28;20021;-55
2021/12/18 06:05:51;;;;;;;25.38;11.40;;;;;;;6.27;100.00;103917.41;5053074;28;20025;-55
2021/12/18 06:08:16;;;;;;;27.10;11.13;;;;;;;6.23;100.00;103911.47;5053614;28;20024;-55
2021/12/18 06:10:42;;;;;;;25.20;11.77;;;;;;;6.28;100.00;103908.97;5052713;28;20029;-56
2021/12/18 06:13:07;;;;;;;26.95;11.40;;;;;;;6.30;100.00;103906.88;5052897;28;20439;-55
2021/12/18 06:15:32;;;;;;;24.85;11.10;;;;;;;6.36;100.00;103911.53;5053179;28;20029;-56
2021/12/18 06:18:00;;;;;;;25.15;11.60;;;;;;;6.37;100.00;103902.25;5052518;28;20185;-55
2021/12/18 06:20:27;;;;;;;23.02;10.30;;;;;;;6.35;100.00;103889.75;5053000;28;20032;-55
2021/12/18 06:22:53;;;;;;;26.10;12.07;;;;;;;6.38;100.00;103898.44;5052814;28;20133;-55
2021/12/18 06:25:19;;;;;;;26.73;11.45;;;;;;;6.40;100.00;103900.97;5052898;28;20194;-57
2021/12/18 06:27:44;;;;;;;27.45;10.95;;;;;;;6.39;100.00;103905.66;5053419;28;20048;-56
2021/12/18 06:30:10;;;;;;;25.25;10.82;;;;;;;6.42;100.00;103909.88;5052486;28;20369;-55
2021/12/18 06:32:36;;;;;;;26.73;11.73;;;;;;;6.42;100.00;103898.06;5052827;28;20028;-55
2021/12/18 06:35:03;;;;;;;24.70;10.73;;;;;;;6.42;100.00;103901.63;5052544;28;20105;-56
2021/12/18 06:37:28;;;;;;;26.30;10.23;;;;;;;6.42;100.00;103901.63;5052702;28;20029;-57
2021/12/18 06:39:54;;;;;;;24.08;10.20;;;;;;;6.44;100.00;103904.19;5050674;28;20392;-55
2021/12/18 06:42:19;;;;;;;24.20;10.15;;;;;;;6.47;100.00;103903.78;5052396;28;20063;-55
2021/12/18 06:44:45;;;;;;;23.83;10.02;;;;;;;6.45;100.00;103909.50;5052410;28;20388;-55
2021/12/18 06:47:10;;;;;;;24.90;10.30;;;;;;;6.49;100.00;103907.19;5052350;28;20029;-55
2021/12/18 06:49:35;;;;;;;24.08;9.95;;;;;;;6.50;100.00;103909.72;5052649;28;20587;-55
2021/12/18 06:52:01;;;;;;;25.58;9.85;;;;;;;6.50;100.00;103900.63;5052284;28;20025;-55
2021/12/18 06:54:26;;;;;;;23.65;10.02;;;;;;;6.51;100.00;103911.41;5052173;28;20083;-55
2021/12/18 06:56:51;;;;;;;23.30;11.30;;;;;;;6.51;100.00;103907.84;5052347;28;20037;-54
2021/12/18 06:59:17;;;;;;;23.23;10.57;;;;;;;6.50;100.00;103906.13;5052592;28;20490;-54
2021/12/18 07:01:42;;;;;;;22.30;10.02;;;;;;;6.49;100.00;103904.44;5051628;28;20033;-55
2021/12/18 07:04:08;;;;;;;22.83;9.52;;;;;;;6.48;100.00;103899.97;5051764;28;20025;-58
2021/12/18 07:06:33;;;;;;;23.95;10.00;;;;;;;6.49;100.00;103902.53;5052398;28;20108;-57
2021/12/18 07:08:58;;;;;;;23.05;9.45;;;;;;;6.47;100.00;103901.88;5052633;28;20183;-58
2021/12/18 07:11:24;;;;;;;22.45;9.63;;;;;;;6.52;100.00;103906.75;5052533;28;20033;-56
2021/12/18 07:13:49;;;;;;;23.10;9.82;;;;;;;6.50;100.00;103914.38;5052421;28;20135;-56
2021/12/18 07:16:15;;;;;;;22.55;8.98;;;;;;;6.48;100.00;103905.47;5053106;28;20503;-56
2021/12/18 07:18:41;;;;;;;22.80;9.52;;;;;;;6.44;100.00;103912.44;5053084;28;20049;-57
2021/12/18 07:21:06;;;;;;;21.05;8.80;;;;;;;6.44;100.00;103912.44;5052662;28;20021;-55
2021/12/18 07:23:31;;;;;;;22.80;8.68;;;;;;;6.42;100.00;103915.38;5052828;28;20021;-55
2021/12/18 07:25:57;;;;;;;22.95;9.10;;;;;;;6.44;100.00;103912.44;5052444;28;20025;-55
2021/12/18 07:28:22;;;;;;;23.90;9.32;;;;;;;6.43;100.00;103919.84;5052872;28;20023;-55
2021/12/18 07:30:48;;;;;;;21.60;8.65;;;;;;;6.46;100.00;103916.69;5052520;28;20025;-56
2021/12/18 07:33:13;;;;;;;21.55;9.68;;;;;;;6.49;100.00;103910.75;5049940;28;20399;-56
2021/12/18 07:35:39;;;;;;;22.70;9.80;;;;;;;6.47;100.00;103910.13;5052204;28;20427;-56
2021/12/18 07:38:05;;;;;;;23.25;9.15;;;;;;;6.52;100.00;103918.63;5052853;28;20036;-56
2021/12/18 07:40:30;;;;;;;23.70;10.43;;;;;;;6.48;100.00;103921.97;5052676;28;20025;-56
2021/12/18 07:42:56;;;;;;;23.80;9.50;;;;;;;6.49;100.00;103918.19;5052559;28;20127;-57
2021/12/18 07:45:21;;;;;;;25.23;9.90;;;;;;;6.45;100.00;103917.75;5052250;28;20028;-57
2021/12/18 07:47:46;;;;;;;22.98;9.57;;;;;;;6.45;100.00;103920.50;5052605;28;20021;-57
2021/12/18 07:50:12;;;;;;;24.02;9.52;;;;;;;6.46;100.00;103924.06;5052989;28;20025;-56
2021/12/18 07:52:38;;;;;;;24.42;9.95;;;;;;;6.46;100.00;103922.19;5056606;28;20048;-56
2021/12/18 07:55:04;;;;;;;22.60;9.68;;;;;;;6.44;100.00;103923.44;5056214;28;20112;-55
2021/12/18 07:57:29;;;;;;;21.83;9.45;;;;;;;6.43;100.00;103918.97;5056372;28;20031;-56
2021/12/18 07:59:54;;;;;;;24.08;10.27;;;;;;;6.43;100.00;103919.84;5056425;28;20380;-56
2021/12/18 08:02:20;;;;;;;24.50;9.40;;;;;;;6.45;100.00;103922.38;5055887;28;20034;-56
2021/12/18 08:04:45;;;;;;;26.15;10.57;;;;;;;6.48;100.00;103925.56;5056335;28;20024;-56
2021/12/18 08:07:10;;;;;;;24.63;10.13;;;;;;;6.44;100.00;103920.69;5056182;28;20029;-56
2021/12/18 08:09:35;;;;;;;23.40;10.63;;;;;;;6.43;100.00;103916.22;5055846;28;20025;-54
2021/12/18 08:12:01;;;;;;;24.88;10.35;;;;;;;6.44;100.00;103916.03;5055744;28;20033;-56
2021/12/18 08:14:26;;;;;;;23.40;9.25;;;;;;;6.44;100.00;103920.69;5056195;28;20028;-56
2021/12/18 08:16:51;;;;;;;24.48;9.13;;;;;;;6.45;100.00;103915.00;5056262;28;20056;-56
2021/12/18 08:19:17;;;;;;;24.33;9.25;;;;;;;6.48;100.00;103916.47;5056232;28;20066;-55
2021/12/18 08:21:42;;;;;;;22.33;9.00;;;;;;;6.52;100.00;103917.75;5055928;28;20029;-56
2021/12/18 08:24:07;;;;;;;20.90;7.70;;;;;;;6.54;100.00;103916.53;5055793;28;20032;-55
2021/12/18 08:26:33;;;;;;;21.15;7.95;;;;;;;6.53;100.00;103913.97;5055458;28;20110;-55
2021/12/18 08:28:58;;;;;;;19.38;8.02;;;;;;;6.55;100.00;103917.38;5054019;28;20480;-55
2021/12/18 08:31:23;;;;;;;21.42;8.35;;;;;;;6.54;100.00;103915.66;5032200;28;20116;-55
2021/12/18 08:33:49;;;;;;;21.27;8.38;;;;;;;6.52;100.00;103915.88;5032266;28;20033;-55
2021/12/18 08:36:14;;;;;;;20.83;8.05;;;;;;;6.53;100.00;103913.97;5033385;28;20041;-56
2021/12/18 08:38:40;;;;;;;20.17;7.70;;;;;;;6.54;100.00;103912.91;5031634;28;20116;-56
2021/12/18 08:41:05;;;;;;;18.70;7.57;;;;;;;6.50;100.00;103914.38;5033241;28;20033;-55
2021/12/18 08:43:31;;;;;;;22.10;9.20;;;;;;;6.49;100.00;103918.19;5033562;28;20053;-56
2021/12/18 08:45:56;;;;;;;19.00;7.40;;;;;;;6.48;100.00;103919.22;5033456;28;20087;-55
2021/12/18 08:48:21;;;;;;;20.80;8.02;;;;;;;6.51;100.00;103918.84;5033022;28;20037;-56
2021/12/18 08:50:47;;;;;;;19.45;7.32;;;;;;;6.54;100.00;103922.03;5033357;28;20055;-56
2021/12/18 08:53:12;;;;;;;20.75;7.63;;;;;;;6.56;100.00;103922.66;5033196;28;20029;-57
2021/12/18 08:55:38;;;;;;;19.20;7.10;;;;;;;6.51;100.00;103924.34;5033192;28;20029;-56
2021/12/18 08:58:03;;;;;;;18.73;6.50;;;;;;;6.46;100.00;103910.31;5033144;28;20040;-54
2021/12/18 09:00:30;;;;;;;27.45;12.55;;;;;;;6.47;100.00;103920.28;5033312;28;20053;-56
2021/12/18 09:02:57;;;;;;;19.17;7.28;;;;;;;6.45;100.00;103919.63;5031888;28;20030;-58
2021/12/18 09:05:23;;;;;;;19.25;7.30;;;;;;;6.44;100.00;103915.19;5032699;28;20033;-59
2021/12/18 09:07:49;;;;;;;18.92;7.20;;;;;;;6.42;100.00;103915.38;5033106;28;20029;-56
2021/12/18 09:10:15;;;;;;;16.33;6.00;;;;;;;6.42;100.00;103922.81;5033127;28;20353;-59
2021/12/18 09:12:41;;;;;;;16.70;6.00;;;;;;;6.37;100.00;103920.66;5031724;28;20071;-56
2021/12/18 09:15:07;;;;;;;17.58;6.60;;;;;;;6.36;100.00;103927.22;5033005;28;20075;-56
2021/12/18 09:17:32;;;;;;;14.65;5.88;;;;;;;6.39;100.00;103921.28;5032659;28;20037;-56
2021/12/18 09:19:58;;;;;;;16.70;6.00;;;;;;;6.33;100.00;103920.19;5038656;28;20044;-56
2021/12/18 09:22:23;;;;;;;16.23;6.20;;;;;;;6.29;100.00;103918.03;5052387;28;20530;-56
2021/12/18 09:24:48;;;;;;;13.25;5.30;;;;;;;6.29;100.00;103913.41;5052226;28;20028;-56
2021/12/18 09:27:17;;;;;;;13.82;5.57;;;;;;;6.32;100.00;103923.16;5052205;28;20025;-57
2021/12/18 09:29:42;;;;;;;12.65;5.50;;;;;;;6.29;100.00;103924.41;5049307;28;20040;-56
2021/12/18 09:32:07;;;;;;;11.52;5.13;;;;;;;6.31;100.00;103918.69;5052544;28;20017;-54
2021/12/18 09:34:33;;;;;;;12.25;5.03;;;;;;;6.27;100.00;103921.00;5052124;28;20025;-56
2021/12/18 09:36:59;;;;;;;11.73;5.22;;;;;;;6.27;100.00;103917.41;5050467;28;20028;-56
2021/12/18 09:39:24;;;;;;;11.90;5.28;;;;;;;6.32;100.00;103921.25;5052428;28;20048;-56
2021/12/18 09:41:50;;;;;;;12.43;5.30;;;;;;;6.42;100.00;103918.13;5052042;28;20025;-56
2021/12/18 09:44:31;;;;;;;11.93;5.43;;;;;;;6.48;100.00;103910.97;5051903;28;20044;-56
2021/12/18 09:46:57;;;;;;;12.73;5.30;;;;;;;6.51;99.51;103924.34;5051600;28;20021;-56
2021/12/18 09:49:23;;;;;;;11.05;5.18;;;;;;;6.55;99.66;103914.63;5051709;28;20033;-56
2021/12/18 09:51:49;;;;;;;13.88;5.45;;;;;;;6.56;99.21;103914.41;5051938;28;20028;-56
2021/12/18 09:54:15;;;;;;;12.80;5.55;;;;;;;6.58;99.46;103908.72;5052156;28;20033;-57
2021/12/18 09:56:42;;;;;;;15.20;6.28;;;;;;;6.66;99.77;103911.28;5052350;28;20037;-57
2021/12/18 09:59:08;;;;;;;10.88;5.50;;;;;;;6.77;99.87;103915.34;5052119;28;20025;-57
2021/12/18 10:01:34;;;;;;;9.32;4.53;;;;;;;6.85;99.22;103917.91;5051618;28;20373;-56
2021/12/18 10:04:01;;;;;;;9.70;4.65;;;;;;;6.95;98.99;103906.53;5051193;28;20025;-56
2021/12/18 10:06:41;;;;;;;12.57;5.40;;;;;;;6.95;98.54;103894.66;5051557;28;20025;-56
2021/12/18 10:09:07;;;;;;;21.50;9.20;;;;;;;7.00;98.40;103903.16;5051933;28;20108;-56
2021/12/18 10:11:33;;;;;;;14.90;5.60;;;;;;;7.05;97.33;103906.13;5051568;28;20092;-56
2021/12/18 10:14:04;;;;;;;14.65;5.88;;;;;;;7.05;97.30;103906.13;5050900;28;20024;-56
2021/12/18 10:16:30;;;;;;;14.90;5.90;;;;;;;6.99;97.10;103904.22;5051824;28;20148;-56
2021/12/18 10:18:59;;;;;;;16.25;6.40;;;;;;;6.84;97.86;103883.22;5051723;28;20087;-56
2021/12/18 10:21:28;;;;;;;17.88;6.90;;;;;;;6.72;97.98;103882.13;5051789;28;20032;-57
2021/12/18 10:23:55;;;;;;;17.88;6.70;;;;;;;6.65;98.51;103901.34;5051596;28;20036;-55
2021/12/18 10:26:35;;;;;;;16.70;6.55;;;;;;;6.51;99.54;103897.66;5050048;28;20362;-56
2021/12/18 10:29:02;;;;;;;18.38;6.75;;;;;;;6.45;99.75;103903.13;5050612;28;20037;-57
2021/12/18 10:31:45;;;;;;;13.93;6.00;;;;;;;6.38;99.79;103897.59;5050744;28;20085;-57
2021/12/18 10:34:21;;;;;;;17.40;6.05;;;;;;;6.23;100.00;103879.31;5050747;28;20119;-57
2021/12/18 10:37:09;;;;;;;15.77;6.60;;;;;;;6.32;100.00;103891.03;5048533;28;20029;-56
2021/12/18 10:39:40;;;;;;;16.25;5.85;;;;;;;6.27;100.00;103889.94;5051115;28;20024;-55
2021/12/18 10:42:34;;;;;;;15.80;6.10;;;;;;;6.30;99.92;103892.25;5051060;28;20024;-57
2021/12/18 10:45:11;;;;;;;17.35;7.22;;;;;;;6.34;99.71;103894.38;5050776;28;20041;-57
2021/12/18 10:48:01;;;;;;;13.88;5.80;;;;;;;6.39;99.50;103888.28;5049404;28;20381;-57
2021/12/18 10:50:28;;;;;;;14.63;6.18;;;;;;;6.36;98.83;103869.47;5051153;28;20103;-57
2021/12/18 10:52:57;;;;;;;12.38;5.40;;;;;;;6.49;98.67;103882.44;5049180;28;20037;-56
2021/12/18 10:55:34;;;;;;;12.30;5.40;;;;;;;6.48;97.74;103881.56;5050991;28;20025;-57
2021/12/18 10:58:02;;;;;;;12.82;5.53;;;;;;;6.49;98.12;103886.00;5050349;28;20033;-57
2021/12/18 11:00:58;;;;;;;14.65;6.10;;;;;;;6.53;99.38;103881.81;5050854;28;20089;-56
2021/12/18 11:03:25;;;;;;;16.38;6.60;;;;;;;6.50;99.36;103876.72;5042823;28;20078;-56
2021/12/18 11:06:11;;;;;;;18.80;6.28;;;;;;;6.50;99.31;103881.38;5050179;28;20021;-57
2021/12/18 11:08:55;;;;;;;16.05;6.40;;;;;;;6.43;99.64;103878.59;5050385;28;20057;-57
2021/12/18 11:14:06;;;;;;;18.00;6.80;;;;;;;6.29;99.83;103871.31;5050602;28;19917;-56
2021/12/18 11:16:36;;;;;;;18.13;6.65;;;;;;;6.36;100.00;103877.72;5050719;28;20021;-56
2021/12/18 11:19:04;;;;;;;17.48;6.75;;;;;;;6.19;99.98;103871.69;5050700;28;20064;-57
2021/12/18 11:21:30;;;;;;;16.58;6.70;;;;;;;6.26;100.00;103886.31;5050290;28;20442;-57
2021/12/18 11:24:01;;;;;;;14.80;6.60;;;;;;;6.19;100.00;103880.75;5050865;28;20025;-56
2021/12/18 11:26:31;;;;;;;13.95;6.25;;;;;;;6.24;100.00;103886.53;5053359;28;20025;-56
2021/12/18 11:29:00;;;;;;;17.45;7.63;;;;;;;6.21;100.00;103878.66;5054675;28;20075;-57
2021/12/18 11:31:26;;;;;;;15.07;6.47;;;;;;;6.15;99.92;103875.88;5054262;28;20024;-57
2021/12/18 11:33:53;;;;;;;16.17;6.55;;;;;;;6.19;100.00;103874.44;5054320;28;20052;-57
2021/12/18 11:36:19;;;;;;;16.65;6.90;;;;;;;6.16;100.00;103872.94;5053369;28;20115;-54
2021/12/18 11:38:46;;;;;;;16.95;7.55;;;;;;;6.16;100.00;103872.06;5056719;28;20147;-55
2021/12/18 11:41:16;;;;;;;19.02;7.40;;;;;;;6.15;99.84;103875.88;5057522;28;20044;-57
2021/12/18 11:43:45;;;;;;;16.02;6.70;;;;;;;6.08;99.79;103871.19;5054277;28;20072;-57
2021/12/18 11:46:38;;;;;;;17.23;7.15;;;;;;;6.08;100.00;103871.19;5072813;28;20029;-56
2021/12/18 11:49:09;;;;;;;16.97;6.70;;;;;;;6.00;100.00;103865.00;5065008;28;20032;-56
2021/12/18 11:51:36;;;;;;;17.38;6.57;;;;;;;5.98;100.00;103869.81;5053699;28;20287;-57
2021/12/18 11:54:04;;;;;;;19.13;7.00;;;;;;;5.94;100.00;103863.88;5054253;28;20132;-57
2021/12/18 11:56:47;;;;;;;17.17;6.65;;;;;;;5.92;100.00;103854.97;5053898;28;20116;-57